Time;durP1;ratioP1;P1;durP2;ratioP2;P2;SDS_P1;SDS_P2;PMS_P1;PMS_P2;Temp;Humidity;BMP_temperature;BMP_pressure;BME280_temperature;BME280_humidity;BME280_pressure;Samples;Min_cycle;Max_cycle;Signal;HPM_P1;HPM_P2
2021/10/20 00:00:25;;;;;;;55.35;27.60;;;7.10;99.90;;;;;;5032436;28;20104;-80
2021/10/20 00:02:53;;;;;;;58.38;28.73;;;7.10;99.90;;;;;;5021167;28;20025;-80
2021/10/20 00:05:19;;;;;;;53.78;29.27;;;7.10;99.90;;;;;;5012640;28;20483;-80
2021/10/20 00:07:45;;;;;;;51.03;24.88;;;7.10;99.90;;;;;;5012545;28;20136;-80
2021/10/20 00:10:12;;;;;;;47.13;25.83;;;7.10;99.90;;;;;;5014625;28;20507;-80
2021/10/20 00:12:38;;;;;;;44.65;24.20;;;7.10;99.90;;;;;;5014413;28;20037;-80
2021/10/20 00:15:07;;;;;;;48.13;24.55;;;7.10;99.90;;;;;;5013578;28;20117;-80
2021/10/20 00:17:33;;;;;;;47.60;24.35;;;7.10;99.90;;;;;;5012575;28;20152;-80
2021/10/20 00:20:06;;;;;;;47.13;25.10;;;7.20;99.90;;;;;;5012289;28;20038;-79
2021/10/20 00:22:32;;;;;;;45.53;24.92;;;7.20;99.90;;;;;;5026910;28;20061;-79
2021/10/20 00:24:58;;;;;;;43.58;24.00;;;7.20;99.90;;;;;;5012434;28;20379;-79
2021/10/20 00:27:24;;;;;;;44.38;23.48;;;7.20;99.90;;;;;;5013178;28;20033;-79
2021/10/20 00:29:49;;;;;;;40.72;24.15;;;7.20;99.90;;;;;;5012729;28;20037;-79
2021/10/20 00:32:15;;;;;;;47.17;24.90;;;7.20;99.90;;;;;;5013410;28;20038;-79
2021/10/20 00:34:41;;;;;;;45.08;24.13;;;7.20;99.90;;;;;;5011985;28;20172;-80
2021/10/20 00:37:06;;;;;;;44.05;23.85;;;7.20;99.90;;;;;;5012109;28;20025;-80
2021/10/20 00:39:32;;;;;;;45.40;24.58;;;7.10;99.90;;;;;;5013735;28;20053;-80
2021/10/20 00:41:57;;;;;;;44.70;23.45;;;7.10;99.90;;;;;;5031439;28;20110;-79
2021/10/20 00:44:23;;;;;;;47.63;24.00;;;7.20;99.90;;;;;;5031712;28;20035;-79
2021/10/20 00:46:49;;;;;;;51.75;23.58;;;7.10;99.90;;;;;;5028069;28;20029;-79
2021/10/20 00:49:15;;;;;;;42.67;22.52;;;7.10;99.90;;;;;;5031631;28;20029;-79
2021/10/20 00:51:41;;;;;;;42.03;22.80;;;7.10;99.90;;;;;;5032882;28;20037;-80
2021/10/20 00:54:07;;;;;;;43.53;22.40;;;7.10;99.90;;;;;;5031462;28;20018;-80
2021/10/20 00:56:33;;;;;;;38.38;20.30;;;7.20;99.90;;;;;;5031597;28;20028;-79
2021/10/20 00:59:00;;;;;;;34.50;18.70;;;7.20;99.90;;;;;;5031492;28;20029;-79
2021/10/20 01:01:25;;;;;;;40.53;20.48;;;7.30;99.90;;;;;;5015147;28;20052;-80
2021/10/20 01:03:51;;;;;;;34.47;18.38;;;7.40;99.90;;;;;;5011682;28;20495;-79
2021/10/20 01:06:17;;;;;;;36.95;18.33;;;7.40;99.90;;;;;;5011872;28;20113;-80
2021/10/20 01:08:44;;;;;;;32.53;17.10;;;7.40;99.90;;;;;;5011670;28;20030;-80
2021/10/20 01:11:09;;;;;;;34.08;16.42;;;7.40;99.90;;;;;;5012976;28;20108;-79
2021/10/20 01:13:35;;;;;;;28.40;15.65;;;7.50;99.90;;;;;;5020339;28;20120;-79
2021/10/20 01:16:01;;;;;;;26.85;15.50;;;7.60;99.90;;;;;;5031369;28;20025;-79
2021/10/20 01:18:27;;;;;;;25.02;15.20;;;7.70;99.90;;;;;;5031371;28;20025;-79
2021/10/20 01:20:59;;;;;;;26.38;15.18;;;7.70;99.90;;;;;;5031346;28;20507;-79
2021/10/20 01:23:25;;;;;;;29.90;13.98;;;7.90;99.90;;;;;;5034240;28;20025;-79
2021/10/20 01:25:51;;;;;;;30.00;12.90;;;7.90;99.90;;;;;;5024185;28;20041;-80
2021/10/20 01:28:17;;;;;;;26.83;12.18;;;8.00;99.90;;;;;;5016829;28;20388;-80
2021/10/20 01:30:43;;;;;;;20.60;11.50;;;8.10;99.90;;;;;;5019589;28;20029;-80
2021/10/20 01:33:10;;;;;;;20.42;12.30;;;8.20;99.90;;;;;;5016632;28;20558;-80
2021/10/20 01:35:36;;;;;;;20.98;12.02;;;8.20;99.90;;;;;;5027773;28;20017;-80
2021/10/20 01:38:03;;;;;;;19.08;11.15;;;8.20;99.90;;;;;;5035110;28;20025;-81
2021/10/20 01:40:28;;;;;;;17.85;10.70;;;8.30;99.90;;;;;;5034562;28;20028;-80
2021/10/20 01:42:54;;;;;;;17.00;11.60;;;8.40;99.90;;;;;;5017174;28;20120;-80
2021/10/20 01:45:20;;;;;;;18.67;10.55;;;8.40;99.90;;;;;;5015227;28;20018;-80
2021/10/20 01:47:46;;;;;;;19.27;10.73;;;8.40;99.90;;;;;;5015171;28;20033;-80
2021/10/20 01:50:14;;;;;;;18.52;12.15;;;8.50;99.90;;;;;;5015081;28;20025;-80
2021/10/20 01:52:41;;;;;;;21.40;12.10;;;8.50;99.90;;;;;;5025537;28;20069;-79
2021/10/20 01:55:08;;;;;;;18.60;11.20;;;8.50;99.90;;;;;;5034748;28;20052;-79
2021/10/20 01:57:34;;;;;;;17.25;11.73;;;8.60;99.90;;;;;;5026094;28;20026;-79
2021/10/20 02:00:00;;;;;;;18.00;11.93;;;8.60;99.90;;;;;;5014880;28;20032;-79
2021/10/20 02:02:25;;;;;;;16.65;10.75;;;8.60;99.90;;;;;;5031322;28;20030;-79
2021/10/20 02:04:51;;;;;;;23.73;12.60;;;8.60;99.90;;;;;;5019229;28;20052;-79
2021/10/20 02:07:17;;;;;;;18.30;10.43;;;8.60;99.90;;;;;;5015529;28;20053;-80
2021/10/20 02:09:43;;;;;;;22.02;11.27;;;8.60;99.90;;;;;;5024316;28;20021;-79
2021/10/20 02:12:10;;;;;;;17.10;9.82;;;8.60;99.90;;;;;;5035712;28;20064;-80
2021/10/20 02:14:36;;;;;;;15.45;10.23;;;8.60;99.90;;;;;;5033964;28;20021;-79
2021/10/20 02:17:03;;;;;;;15.70;9.70;;;8.60;99.90;;;;;;5034376;28;20033;-80
2021/10/20 02:19:29;;;;;;;19.73;11.13;;;8.70;99.90;;;;;;5027852;28;20668;-79
2021/10/20 02:21:56;;;;;;;17.05;10.73;;;8.70;99.90;;;;;;5015519;28;20018;-79
2021/10/20 02:24:22;;;;;;;16.02;9.43;;;8.60;99.90;;;;;;5016023;28;20388;-79
2021/10/20 02:26:48;;;;;;;17.40;9.63;;;8.70;99.90;;;;;;5015690;28;20030;-79
2021/10/20 02:29:13;;;;;;;13.60;9.40;;;8.60;99.90;;;;;;5021899;28;20048;-79
2021/10/20 02:31:45;;;;;;;14.65;10.15;;;8.70;99.90;;;;;;5034020;28;20547;-79
2021/10/20 02:34:15;;;;;;;15.67;9.83;;;8.60;99.90;;;;;;5033606;28;20017;-79
2021/10/20 02:36:41;;;;;;;14.63;9.48;;;8.60;99.90;;;;;;5034035;28;20326;-79
2021/10/20 02:39:07;;;;;;;15.70;9.55;;;8.70;99.90;;;;;;5034186;28;20439;-79
2021/10/20 02:41:33;;;;;;;14.38;9.30;;;8.70;99.90;;;;;;5029129;28;20097;-79
2021/10/20 02:43:58;;;;;;;15.77;9.18;;;8.70;99.90;;;;;;5015337;28;20429;-79
2021/10/20 02:46:24;;;;;;;13.43;8.98;;;8.70;99.90;;;;;;5017859;28;20100;-79
2021/10/20 02:48:50;;;;;;;15.27;8.80;;;8.70;99.90;;;;;;5033659;28;20033;-79
2021/10/20 02:51:15;;;;;;;15.50;8.90;;;8.80;99.90;;;;;;5033783;28;20040;-80
2021/10/20 02:53:41;;;;;;;16.17;9.65;;;8.90;99.90;;;;;;5025672;28;20018;-80
2021/10/20 02:56:06;;;;;;;13.07;9.40;;;8.90;99.90;;;;;;5024691;28;20574;-80
2021/10/20 02:58:32;;;;;;;16.30;9.02;;;8.90;99.90;;;;;;5033310;28;20025;-80
2021/10/20 03:00:58;;;;;;;14.43;8.90;;;9.00;99.90;;;;;;5032477;28;20526;-80
2021/10/20 03:03:23;;;;;;;14.65;9.35;;;9.10;99.90;;;;;;5034820;28;20028;-80
2021/10/20 03:05:49;;;;;;;15.32;9.40;;;9.10;99.90;;;;;;5033511;28;20025;-80
2021/10/20 03:08:15;;;;;;;12.73;8.27;;;9.20;99.90;;;;;;5028096;28;20029;-80
2021/10/20 03:10:41;;;;;;;13.00;8.52;;;9.20;99.90;;;;;;5034652;28;20101;-80
2021/10/20 03:13:07;;;;;;;15.05;9.20;;;9.30;99.90;;;;;;5034618;28;20034;-80
2021/10/20 03:15:33;;;;;;;11.43;8.05;;;9.30;99.90;;;;;;5034667;28;20144;-80
2021/10/20 03:17:59;;;;;;;17.88;8.60;;;9.40;99.90;;;;;;5033238;28;20455;-80
2021/10/20 03:20:25;;;;;;;11.82;8.52;;;9.50;99.90;;;;;;5034516;28;20030;-80
2021/10/20 03:22:51;;;;;;;11.48;7.80;;;9.50;99.90;;;;;;5022538;28;20029;-80
2021/10/20 03:25:16;;;;;;;10.48;7.55;;;9.60;99.90;;;;;;5014678;28;20109;-80
2021/10/20 03:27:50;;;;;;;11.95;8.25;;;9.60;99.90;;;;;;5014593;28;20036;-80
2021/10/20 03:30:18;;;;;;;11.07;7.72;;;9.60;99.90;;;;;;5013224;28;20018;-80
2021/10/20 03:32:44;;;;;;;14.73;8.68;;;9.60;99.90;;;;;;5020831;28;20091;-80
2021/10/20 03:35:11;;;;;;;10.65;7.43;;;9.60;99.90;;;;;;5032902;28;20559;-80
2021/10/20 03:37:37;;;;;;;13.38;8.00;;;9.60;99.90;;;;;;5032541;28;20027;-81
2021/10/20 03:40:04;;;;;;;9.25;7.60;;;9.60;99.90;;;;;;5032843;28;20030;-80
2021/10/20 03:42:30;;;;;;;11.43;7.65;;;9.70;99.90;;;;;;5034057;28;20025;-80
2021/10/20 03:44:56;;;;;;;8.90;7.35;;;9.70;99.90;;;;;;5033761;28;20442;-80
2021/10/20 03:47:22;;;;;;;11.70;7.90;;;9.70;99.90;;;;;;5032197;28;20411;-80
2021/10/20 03:49:49;;;;;;;13.80;8.73;;;9.70;99.90;;;;;;5032613;28;20022;-80
2021/10/20 03:52:16;;;;;;;11.07;7.15;;;9.70;99.90;;;;;;5032573;28;20034;-80
2021/10/20 03:54:42;;;;;;;8.88;7.43;;;9.70;99.90;;;;;;5032537;28;20021;-80
2021/10/20 03:57:08;;;;;;;11.43;7.40;;;9.70;99.90;;;;;;5033329;28;20029;-80
2021/10/20 03:59:34;;;;;;;11.70;6.90;;;9.70;99.90;;;;;;5014012;28;20029;-80
2021/10/20 04:01:59;;;;;;;9.90;7.07;;;9.80;99.90;;;;;;5014267;28;20464;-80
2021/10/20 04:04:25;;;;;;;12.13;7.70;;;9.70;99.90;;;;;;5013983;28;20061;-80
2021/10/20 04:06:51;;;;;;;10.55;7.28;;;9.70;99.90;;;;;;5013915;28;20026;-80
2021/10/20 04:09:16;;;;;;;9.80;7.38;;;9.80;99.90;;;;;;5013870;28;20026;-80
2021/10/20 04:11:42;;;;;;;12.68;7.78;;;9.80;99.90;;;;;;5012433;28;20030;-80
2021/10/20 04:14:08;;;;;;;13.60;7.30;;;9.80;99.90;;;;;;5013683;28;20034;-81
2021/10/20 04:16:33;;;;;;;11.45;7.53;;;9.90;99.90;;;;;;5012493;28;20029;-80
2021/10/20 04:18:59;;;;;;;11.55;7.78;;;9.90;99.90;;;;;;5012354;28;20459;-80
2021/10/20 04:21:25;;;;;;;10.10;6.68;;;9.90;99.90;;;;;;5016494;28;20060;-80
2021/10/20 04:23:50;;;;;;;11.50;7.32;;;9.90;99.90;;;;;;5031327;28;20379;-80
2021/10/20 04:26:16;;;;;;;10.77;6.97;;;9.90;99.90;;;;;;5032054;28;20030;-81
2021/10/20 04:28:41;;;;;;;9.80;7.43;;;9.90;99.90;;;;;;5031947;28;20017;-81
2021/10/20 04:31:07;;;;;;;9.13;6.68;;;10.00;99.90;;;;;;5015018;28;20022;-80
2021/10/20 04:33:33;;;;;;;8.95;7.05;;;10.00;99.90;;;;;;5012209;28;20450;-80
2021/10/20 04:35:59;;;;;;;10.63;7.35;;;10.00;99.90;;;;;;5012126;28;20025;-80
2021/10/20 04:38:24;;;;;;;11.35;6.88;;;10.10;99.90;;;;;;5009457;28;20391;-80
2021/10/20 04:40:50;;;;;;;9.68;6.53;;;10.10;99.90;;;;;;5015786;28;20025;-80
2021/10/20 04:43:16;;;;;;;8.35;6.72;;;10.10;99.90;;;;;;5030788;28;20057;-80
2021/10/20 04:45:42;;;;;;;9.25;7.13;;;10.20;99.90;;;;;;5031976;28;20021;-80
2021/10/20 04:48:07;;;;;;;11.90;7.03;;;10.10;99.90;;;;;;5031855;28;20021;-80
2021/10/20 04:50:33;;;;;;;9.75;7.47;;;10.20;99.90;;;;;;5030802;28;20066;-80
2021/10/20 04:52:59;;;;;;;11.80;7.38;;;10.30;99.90;;;;;;5030608;28;20532;-80
2021/10/20 04:55:24;;;;;;;10.40;7.63;;;10.30;99.90;;;;;;5029539;28;20033;-80
2021/10/20 04:57:51;;;;;;;11.10;7.18;;;10.30;99.90;;;;;;5027195;28;20017;-80
2021/10/20 05:00:18;;;;;;;9.77;6.63;;;10.40;99.90;;;;;;5009697;28;20057;-80
2021/10/20 05:02:44;;;;;;;8.50;6.60;;;10.40;99.90;;;;;;5009844;28;20385;-80
2021/10/20 05:05:10;;;;;;;13.38;6.90;;;10.50;99.90;;;;;;5009665;28;20030;-80
2021/10/20 05:07:49;;;;;;;9.10;6.00;;;10.50;99.90;;;;;;5011002;28;20049;-80
2021/10/20 05:10:15;;;;;;;10.52;6.90;;;10.60;99.90;;;;;;5010285;28;20026;-81
2021/10/20 05:12:41;;;;;;;12.70;6.18;;;10.60;99.90;;;;;;5012870;28;20030;-80
2021/10/20 05:15:07;;;;;;;10.07;6.45;;;10.70;99.90;;;;;;5012917;28;20018;-80
2021/10/20 05:17:33;;;;;;;9.02;6.22;;;10.70;99.90;;;;;;5011763;28;20462;-80
2021/10/20 05:19:58;;;;;;;8.57;6.25;;;10.70;99.90;;;;;;5015213;28;20091;-80
2021/10/20 05:22:24;;;;;;;9.18;6.40;;;10.80;99.90;;;;;;5030823;28;20056;-80
2021/10/20 05:24:50;;;;;;;8.48;6.00;;;10.80;99.90;;;;;;5030456;28;20044;-80
2021/10/20 05:27:15;;;;;;;8.65;6.50;;;10.80;99.90;;;;;;5031470;28;20022;-80
2021/10/20 05:29:41;;;;;;;8.23;6.22;;;10.80;99.90;;;;;;5032570;28;20068;-80
2021/10/20 05:32:07;;;;;;;10.85;6.85;;;10.80;99.90;;;;;;5031147;28;20037;-80
2021/10/20 05:34:32;;;;;;;12.63;6.60;;;10.80;99.90;;;;;;5031224;28;20030;-80
2021/10/20 05:36:58;;;;;;;8.55;6.43;;;10.80;99.90;;;;;;5032447;28;20021;-81
2021/10/20 05:39:25;;;;;;;8.32;6.15;;;10.80;99.90;;;;;;5031159;28;20037;-80
2021/10/20 05:41:50;;;;;;;9.15;6.78;;;10.80;99.90;;;;;;5032393;28;20026;-80
2021/10/20 05:44:17;;;;;;;9.82;6.57;;;10.80;99.90;;;;;;5031153;28;20036;-80
2021/10/20 05:46:43;;;;;;;7.65;6.22;;;10.80;99.90;;;;;;5031130;28;20052;-80
2021/10/20 05:49:09;;;;;;;10.27;6.40;;;10.90;99.90;;;;;;5011928;28;20029;-80
2021/10/20 05:51:34;;;;;;;7.88;6.25;;;10.90;99.90;;;;;;5011321;28;20376;-81
2021/10/20 05:54:00;;;;;;;7.88;6.63;;;10.90;99.90;;;;;;5012513;28;20495;-81
2021/10/20 05:56:26;;;;;;;9.70;6.22;;;10.90;99.90;;;;;;5012677;28;20105;-81
2021/10/20 05:58:51;;;;;;;9.73;6.72;;;10.90;99.90;;;;;;5011248;28;20076;-81
2021/10/20 06:01:17;;;;;;;9.95;6.63;;;10.90;99.90;;;;;;5011386;28;20080;-81
2021/10/20 06:03:43;;;;;;;8.82;5.80;;;11.00;99.90;;;;;;5011159;28;20071;-80
2021/10/20 06:06:08;;;;;;;7.22;5.60;;;11.00;99.90;;;;;;5011194;28;20547;-80
2021/10/20 06:08:34;;;;;;;8.05;6.45;;;11.00;99.90;;;;;;5011346;28;20022;-80
2021/10/20 06:11:00;;;;;;;7.85;6.20;;;11.10;99.90;;;;;;5014701;28;20033;-80
2021/10/20 06:13:26;;;;;;;8.00;6.60;;;11.10;99.90;;;;;;5029121;28;20132;-80
2021/10/20 06:15:51;;;;;;;8.93;6.00;;;11.20;99.90;;;;;;5034404;28;20032;-80
2021/10/20 06:18:17;;;;;;;7.00;6.03;;;11.10;99.90;;;;;;5034418;28;20036;-80
2021/10/20 06:20:42;;;;;;;10.65;6.93;;;11.20;99.90;;;;;;5035218;28;20118;-81
2021/10/20 06:23:08;;;;;;;10.07;6.72;;;11.30;99.90;;;;;;5034266;28;20026;-81
2021/10/20 06:25:34;;;;;;;10.07;6.45;;;11.30;99.90;;;;;;5028789;28;20067;-82
2021/10/20 06:28:00;;;;;;;10.48;5.95;;;11.30;99.90;;;;;;5033888;28;20028;-81
2021/10/20 06:30:25;;;;;;;7.55;5.70;;;11.30;99.90;;;;;;5035533;28;20053;-81
2021/10/20 06:32:51;;;;;;;9.73;6.68;;;11.30;99.90;;;;;;5033956;28;20033;-81
2021/10/20 06:35:16;;;;;;;8.15;6.47;;;11.40;99.90;;;;;;5028719;28;20423;-81
2021/10/20 06:37:47;;;;;;;8.52;6.30;;;11.40;99.90;;;;;;5029837;28;20088;-80
2021/10/20 06:40:13;;;;;;;8.75;7.40;;;11.50;99.90;;;;;;5031795;28;20025;-80
2021/10/20 06:42:39;;;;;;;9.23;6.65;;;11.50;99.90;;;;;;5034097;28;20043;-80
2021/10/20 06:45:05;;;;;;;11.90;6.35;;;11.60;99.90;;;;;;5032272;28;20697;-80
2021/10/20 06:47:31;;;;;;;8.45;6.57;;;11.60;99.90;;;;;;5028709;28;20022;-78
2021/10/20 06:49:56;;;;;;;8.60;6.68;;;11.70;99.90;;;;;;5029485;28;20537;-78
2021/10/20 06:52:22;;;;;;;8.63;6.60;;;11.80;99.90;;;;;;5032002;28;20059;-78
2021/10/20 06:54:48;;;;;;;10.10;6.60;;;11.80;99.90;;;;;;5031327;28;20025;-78
2021/10/20 06:57:13;;;;;;;11.73;6.60;;;11.90;99.90;;;;;;5034648;28;20052;-78
2021/10/20 06:59:41;;;;;;;12.65;6.90;;;12.00;99.90;;;;;;5028632;28;20025;-78
2021/10/20 07:02:06;;;;;;;10.00;6.57;;;12.10;99.90;;;;;;5024165;28;20534;-77
2021/10/20 07:04:32;;;;;;;14.35;7.45;;;12.20;99.90;;;;;;5023522;28;20029;-77
2021/10/20 07:06:58;;;;;;;9.68;5.97;;;12.30;99.90;;;;;;5023011;28;20123;-78
2021/10/20 07:09:24;;;;;;;8.25;6.90;;;12.50;99.90;;;;;;5026854;28;20026;-78
2021/10/20 07:11:49;;;;;;;8.52;6.13;;;12.50;99.90;;;;;;5025615;28;20517;-78
2021/10/20 07:14:15;;;;;;;9.82;6.25;;;12.50;99.90;;;;;;5022405;28;20037;-78
2021/10/20 07:16:42;;;;;;;10.98;6.00;;;12.60;99.90;;;;;;5026192;28;20029;-78
2021/10/20 07:19:08;;;;;;;7.43;5.00;;;12.70;99.90;;;;;;5032992;28;20114;-78
2021/10/20 07:21:38;;;;;;;7.55;5.93;;;12.70;99.90;;;;;;5029816;28;20067;-78
2021/10/20 07:24:05;;;;;;;5.55;4.95;;;12.80;99.90;;;;;;5031991;28;20025;-77
2021/10/20 07:26:31;;;;;;;7.18;4.85;;;12.90;99.90;;;;;;5031732;28;20025;-77
2021/10/20 07:28:57;;;;;;;7.97;5.47;;;12.90;99.90;;;;;;5029315;28;20075;-78
2021/10/20 07:31:29;;;;;;;8.90;5.57;;;13.00;99.90;;;;;;5041505;28;20080;-78
2021/10/20 07:33:55;;;;;;;6.13;5.03;;;13.00;99.90;;;;;;5041532;28;20306;-79
2021/10/20 07:36:20;;;;;;;7.53;5.40;;;13.10;99.90;;;;;;5020143;28;20030;-79
2021/10/20 07:38:46;;;;;;;5.22;4.68;;;13.20;99.90;;;;;;5036073;28;20047;-79
2021/10/20 07:41:12;;;;;;;5.22;4.47;;;13.20;99.90;;;;;;5024289;28;20018;-79
2021/10/20 07:43:37;;;;;;;7.30;5.53;;;13.30;99.90;;;;;;5042951;28;20120;-79
2021/10/20 07:46:03;;;;;;;6.95;5.53;;;13.30;99.90;;;;;;5032250;28;20025;-80
2021/10/20 07:48:29;;;;;;;8.40;5.05;;;13.40;99.90;;;;;;5031827;28;20049;-80
2021/10/20 07:50:55;;;;;;;8.95;6.30;;;13.40;99.90;;;;;;5031458;28;20020;-80
2021/10/20 07:53:20;;;;;;;9.38;5.20;;;13.50;99.90;;;;;;5026921;28;20115;-80
2021/10/20 07:55:46;;;;;;;8.35;5.28;;;13.50;99.90;;;;;;5011453;28;20476;-80
2021/10/20 07:58:12;;;;;;;6.28;4.90;;;13.60;99.90;;;;;;5016976;28;20018;-80
2021/10/20 08:00:37;;;;;;;7.95;5.90;;;13.60;99.90;;;;;;5029968;28;20395;-81
2021/10/20 08:03:03;;;;;;;7.07;5.00;;;13.60;99.90;;;;;;5028776;28;20017;-80
2021/10/20 08:05:29;;;;;;;8.15;5.60;;;13.70;99.90;;;;;;5030547;28;20022;-80
2021/10/20 08:07:55;;;;;;;7.80;5.82;;;13.70;99.90;;;;;;5029966;28;20017;-80
2021/10/20 08:10:26;;;;;;;6.78;5.32;;;13.80;99.90;;;;;;5030204;28;20037;-79
2021/10/20 08:12:54;;;;;;;9.75;5.10;;;13.80;99.90;;;;;;5030135;28;20041;-79
2021/10/20 08:15:20;;;;;;;9.60;5.32;;;13.90;99.90;;;;;;5050433;28;20502;-79
2021/10/20 08:17:46;;;;;;;8.43;5.32;;;13.90;99.90;;;;;;5043104;28;20029;-79
2021/10/20 08:20:17;;;;;;;6.60;5.00;;;13.90;99.90;;;;;;5028320;28;20029;-79
2021/10/20 08:22:43;;;;;;;8.35;5.40;;;14.00;99.90;;;;;;5028729;28;20027;-79
2021/10/20 08:25:10;;;;;;;8.57;5.32;;;14.10;99.90;;;;;;5030025;28;20033;-79
2021/10/20 08:27:37;;;;;;;7.60;5.32;;;14.10;99.90;;;;;;5027590;28;20091;-80
2021/10/20 08:30:05;;;;;;;12.32;5.82;;;14.20;99.90;;;;;;5024878;28;20096;-78
2021/10/20 08:32:33;;;;;;;7.63;5.03;;;14.20;99.90;;;;;;5028375;28;20491;-78
2021/10/20 08:34:59;;;;;;;6.97;4.97;;;14.30;99.90;;;;;;5030161;28;20120;-78
2021/10/20 08:37:24;;;;;;;8.70;5.85;;;14.40;99.90;;;;;;5029544;28;20096;-78
2021/10/20 08:39:50;;;;;;;8.50;5.18;;;14.50;99.90;;;;;;5028999;28;20041;-78
2021/10/20 08:42:16;;;;;;;7.22;4.80;;;14.50;99.90;;;;;;5021610;28;20018;-78
2021/10/20 08:44:42;;;;;;;7.60;5.07;;;14.60;99.90;;;;;;5021545;28;20364;-78
2021/10/20 08:47:08;;;;;;;6.75;4.82;;;14.60;99.90;;;;;;5023441;28;20077;-78
2021/10/20 08:49:36;;;;;;;7.63;4.65;;;14.70;99.90;;;;;;5012424;28;20038;-78
2021/10/20 08:52:03;;;;;;;12.60;4.82;;;14.70;99.90;;;;;;5011122;28;20044;-77
2021/10/20 08:54:29;;;;;;;6.45;5.13;;;14.70;99.90;;;;;;5011452;28;20034;-78
2021/10/20 08:56:55;;;;;;;5.82;4.65;;;14.80;99.90;;;;;;5008746;28;20033;-77
2021/10/20 08:59:22;;;;;;;5.18;4.68;;;14.80;99.90;;;;;;5009992;28;20030;-78
2021/10/20 09:01:48;;;;;;;6.07;4.50;;;14.80;99.90;;;;;;5010486;28;20121;-78
2021/10/20 09:04:19;;;;;;;8.27;4.53;;;14.80;99.90;;;;;;5004268;28;20030;-78
2021/10/20 09:06:45;;;;;;;7.13;4.82;;;14.90;99.90;;;;;;5020768;28;20502;-78
2021/10/20 09:09:13;;;;;;;6.78;4.68;;;15.00;99.90;;;;;;5027358;28;20277;-77
2021/10/20 09:11:40;;;;;;;7.13;5.15;;;15.10;99.90;;;;;;5008867;28;20034;-78
2021/10/20 09:14:12;;;;;;;8.73;4.80;;;15.10;99.90;;;;;;5032121;28;20120;-78
2021/10/20 09:16:40;;;;;;;6.00;5.18;;;15.20;99.90;;;;;;5009091;28;20022;-78
2021/10/20 09:19:11;;;;;;;6.43;4.53;;;15.30;99.90;;;;;;5011231;28;20428;-77
2021/10/20 09:22:05;;;;;;;6.10;4.82;;;15.30;99.90;;;;;;5009486;28;20034;-77
2021/10/20 09:24:38;;;;;;;7.95;4.97;;;15.50;99.90;;;;;;5008018;28;20390;-77
2021/10/20 09:27:16;;;;;;;6.53;4.88;;;15.50;99.90;;;;;;5023725;28;20022;-77
2021/10/20 09:29:42;;;;;;;6.20;5.40;;;15.40;99.90;;;;;;5019172;28;20034;-77
2021/10/20 09:32:09;;;;;;;7.72;5.13;;;15.50;99.90;;;;;;5009805;28;20034;-77
2021/10/20 09:34:37;;;;;;;7.40;5.28;;;15.50;99.90;;;;;;5010548;28;20124;-77
2021/10/20 09:37:04;;;;;;;6.38;4.80;;;15.50;99.90;;;;;;5009742;28;20062;-77
2021/10/20 09:39:30;;;;;;;6.97;5.38;;;15.60;99.90;;;;;;5012397;28;20022;-77
2021/10/20 09:42:09;;;;;;;6.35;4.82;;;15.60;99.90;;;;;;5012270;28;20391;-77
2021/10/20 09:44:49;;;;;;;6.45;5.55;;;15.70;99.90;;;;;;5044515;28;20033;-77
2021/10/20 09:47:15;;;;;;;11.05;6.00;;;15.80;99.90;;;;;;5033428;28;20105;-78
2021/10/20 09:49:56;;;;;;;10.00;6.88;;;16.00;99.90;;;;;;5032028;28;20033;-78
2021/10/20 09:52:24;;;;;;;7.75;5.47;;;16.20;99.90;;;;;;5014646;28;20075;-79
2021/10/20 09:54:50;;;;;;;6.57;5.13;;;16.30;98.80;;;;;;5021628;28;20037;-78
2021/10/20 09:57:16;;;;;;;8.60;5.90;;;16.30;99.60;;;;;;5023072;28;20025;-78
2021/10/20 09:59:46;;;;;;;7.05;5.30;;;16.40;98.10;;;;;;5015133;28;20057;-78
2021/10/20 10:02:12;;;;;;;8.82;5.65;;;16.50;94.40;;;;;;5022065;28;20022;-78
2021/10/20 10:04:39;;;;;;;7.88;6.35;;;16.70;93.90;;;;;;5027329;28;20064;-78
2021/10/20 10:07:05;;;;;;;10.15;5.60;;;16.80;93.50;;;;;;5032797;28;20061;-77
2021/10/20 10:09:31;;;;;;;8.25;5.80;;;16.90;89.30;;;;;;5033747;28;20072;-76
2021/10/20 10:12:02;;;;;;;6.28;5.53;;;17.00;89.70;;;;;;5024922;28;20110;-77
2021/10/20 10:14:34;;;;;;;9.73;5.55;;;17.00;87.80;;;;;;5032500;28;20033;-78
2021/10/20 10:17:02;;;;;;;9.30;5.60;;;17.20;88.90;;;;;;5030235;28;20104;-77
2021/10/20 10:19:30;;;;;;;8.48;4.82;;;17.40;85.90;;;;;;5028130;28;20303;-77
2021/10/20 10:21:57;;;;;;;6.72;4.88;;;17.40;84.60;;;;;;5026798;28;20415;-77
2021/10/20 10:24:30;;;;;;;5.72;4.93;;;17.50;82.90;;;;;;5023125;28;20510;-77
2021/10/20 10:27:11;;;;;;;6.20;4.38;;;17.70;82.90;;;;;;5020846;28;20018;-77
2021/10/20 10:30:17;;;;;;;5.75;4.30;;;17.80;82.10;;;;;;5007110;28;20045;-77
2021/10/20 10:32:46;;;;;;;4.25;3.85;;;17.90;79.10;;;;;;5009230;28;20053;-77
2021/10/20 10:35:12;;;;;;;6.60;4.30;;;18.00;78.30;;;;;;5011762;28;20034;-77
2021/10/20 10:37:38;;;;;;;8.40;3.92;;;18.10;78.80;;;;;;5028808;28;20033;-78
2021/10/20 10:40:31;;;;;;;8.57;4.53;;;18.20;77.00;;;;;;5032326;28;20167;-78
2021/10/20 10:43:04;;;;;;;5.40;4.35;;;18.30;76.00;;;;;;5030830;28;20022;-79
2021/10/20 10:45:29;;;;;;;4.70;3.35;;;18.30;75.70;;;;;;5032048;28;20078;-78
2021/10/20 10:48:05;;;;;;;4.35;3.95;;;18.30;76.00;;;;;;5025406;28;20412;-78
2021/10/20 10:50:49;;;;;;;5.13;3.47;;;18.40;76.00;;;;;;5010886;28;20168;-78
2021/10/20 10:53:33;;;;;;;7.15;4.25;;;18.50;75.80;;;;;;5011576;28;20526;-78
2021/10/20 10:56:06;;;;;;;3.95;3.55;;;18.50;74.10;;;;;;5009003;28;20479;-79
2021/10/20 10:58:51;;;;;;;;;;;18.60;73.70;;;;;;5010331;28;20065;-81
2021/10/20 11:01:43;;;;;;;6.40;3.88;;;18.60;73.10;;;;;;5029649;28;19924;-78
2021/10/20 11:04:27;;;;;;;8.45;5.28;;;18.60;72.80;;;;;;5031062;28;20414;-79
2021/10/20 11:06:56;;;;;;;13.93;10.32;;;18.60;72.70;;;;;;5032516;28;20503;-79
2021/10/20 11:09:33;;;;;;;12.05;8.93;;;18.60;73.40;;;;;;5031320;28;20498;-79
2021/10/20 11:12:01;;;;;;;10.70;9.40;;;18.70;74.00;;;;;;5030993;28;20060;-78
2021/10/20 11:14:29;;;;;;;8.07;6.03;;;18.70;74.70;;;;;;5017379;28;20021;-77
2021/10/20 11:17:04;;;;;;;6.07;5.35;;;18.70;73.60;;;;;;5010873;28;20083;-78
2021/10/20 11:19:30;;;;;;;8.77;8.02;;;18.80;74.50;;;;;;5011876;28;20034;-79
2021/10/20 11:21:57;;;;;;;5.72;4.95;;;18.90;74.20;;;;;;5011169;28;20029;-78
2021/10/20 11:24:23;;;;;;;22.83;9.45;;;18.80;71.40;;;;;;5012397;28;20037;-78
2021/10/20 11:26:53;;;;;;;34.45;14.70;;;18.80;69.70;;;;;;5012432;28;20034;-79
2021/10/20 11:29:21;;;;;;;16.13;7.45;;;19.00;71.20;;;;;;5007291;28;20022;-79
2021/10/20 11:31:56;;;;;;;17.58;8.23;;;19.10;69.10;;;;;;5011981;28;20121;-79
2021/10/20 11:34:26;;;;;;;14.07;8.95;;;19.20;69.00;;;;;;5015748;28;20029;-79
2021/10/20 11:36:53;;;;;;;15.95;10.23;;;19.30;67.10;;;;;;5030248;28;20021;-79
2021/10/20 11:39:19;;;;;;;45.00;18.40;;;19.30;68.60;;;;;;5031168;28;20056;-78
2021/10/20 11:41:55;;;;;;;17.70;6.57;;;19.40;67.80;;;;;;5030606;28;20042;-78
2021/10/20 11:44:28;;;;;;;11.43;6.00;;;19.40;67.10;;;;;;5023439;28;20097;-77
2021/10/20 11:46:55;;;;;;;;;;;19.40;66.20;;;;;;5030275;28;20021;-78
2021/10/20 11:49:22;;;;;;;15.10;11.52;;;19.40;64.50;;;;;;5031840;28;19928;-77
2021/10/20 11:51:49;;;;;;;36.25;20.05;;;19.40;65.60;;;;;;5031442;28;20044;-77
2021/10/20 11:54:15;;;;;;;31.25;11.27;;;19.40;65.60;;;;;;5030557;28;20018;-77
2021/10/20 11:56:41;;;;;;;12.25;6.47;;;19.20;65.00;;;;;;5030921;28;20117;-78
2021/10/20 11:59:19;;;;;;;19.23;8.68;;;19.10;65.80;;;;;;5022359;28;20144;-77
2021/10/20 12:01:47;;;;;;;13.35;5.38;;;18.90;66.90;;;;;;5030029;28;20041;-77
2021/10/20 12:04:13;;;;;;;36.90;19.33;;;18.90;66.10;;;;;;5028321;28;20029;-78
2021/10/20 12:06:39;;;;;;;18.80;14.00;;;18.90;66.80;;;;;;5029058;28;20029;-78
2021/10/20 12:09:06;;;;;;;32.40;16.92;;;19.00;66.50;;;;;;5030723;28;20017;-79
2021/10/20 12:11:32;;;;;;;19.83;8.40;;;19.20;68.10;;;;;;5031074;28;20648;-77
2021/10/20 12:14:06;;;;;;;21.10;8.77;;;19.40;66.40;;;;;;5019386;28;20029;-78
2021/10/20 12:16:33;;;;;;;27.20;16.70;;;19.40;65.60;;;;;;5010630;28;20117;-77
2021/10/20 12:18:59;;;;;;;55.60;41.67;;;19.40;65.90;;;;;;5010362;28;20025;-77
2021/10/20 12:21:30;;;;;;;87.90;32.10;;;19.60;65.50;;;;;;5017078;28;20116;-77
2021/10/20 12:23:58;;;;;;;15.35;7.55;;;19.70;66.00;;;;;;5029587;28;20014;-76
2021/10/20 12:26:27;;;;;;;9.13;5.68;;;19.80;65.50;;;;;;5028066;28;20037;-78
2021/10/20 12:28:54;;;;;;;13.00;5.97;;;19.80;65.90;;;;;;5025301;28;20438;-76
2021/10/20 12:31:22;;;;;;;9.82;6.75;;;19.90;63.90;;;;;;5029824;28;20033;-77
2021/10/20 12:33:51;;;;;;;8.30;6.70;;;19.80;63.40;;;;;;5029455;28;20034;-76
2021/10/20 12:36:23;;;;;;;8.20;5.45;;;19.80;63.50;;;;;;5031085;28;20491;-77
2021/10/20 12:38:49;;;;;;;13.25;6.95;;;19.60;62.90;;;;;;5030621;28;20049;-77
2021/10/20 12:41:27;;;;;;;8.23;4.95;;;19.50;62.90;;;;;;5030789;28;20132;-76
2021/10/20 12:43:58;;;;;;;9.95;5.72;;;19.40;63.60;;;;;;5008946;28;21657;-76